Time;durP1;ratioP1;P1;durP2;ratioP2;P2;SDS_P1;SDS_P2;PMS_P1;PMS_P2;Temp;Humidity;BMP_temperature;BMP_pressure;BME280_temperature;BME280_humidity;BME280_pressure;Samples;Min_cycle;Max_cycle;Signal;HPM_P1;HPM_P2
2022/06/28 13:55:23;;;;;;;;;;;;;;;31.15;41.07;91108.06;5059957;28;20565;-66
2022/06/28 13:57:48;;;;;;;;;;;;;;;29.93;44.40;91112.03;5075181;28;19916;-67
2022/06/28 14:00:13;;;;;;;;;;;;;;;29.64;43.67;91120.84;5074969;28;19969;-68
2022/06/28 14:02:39;;;;;;;;;;;;;;;29.22;44.51;91114.19;5075053;28;19920;-68
2022/06/28 14:05:04;;;;;;;;;;;;;;;29.42;44.81;91117.72;5075141;28;19913;-68
2022/06/28 14:07:29;;;;;;;;;;;;;;;28.65;45.94;91115.13;5075078;28;19982;-68
2022/06/28 14:09:55;;;;;;;;;;;;;;;28.24;46.41;91113.34;5074860;28;20411;-68
2022/06/28 14:12:20;;;;;;;;;;;;;;;27.90;47.98;91107.97;5074744;28;19923;-68
2022/06/28 14:14:46;;;;;;;;;;;;;;;28.17;48.13;91101.75;5074492;28;19912;-68
2022/06/28 14:17:11;;;;;;;;;;;;;;;28.30;47.77;91098.06;5074707;28;19927;-68
2022/06/28 14:19:36;;;;;;;;;;;;;;;28.01;48.32;91094.94;5074740;28;20325;-67
2022/06/28 14:22:02;;;;;;;;;;;;;;;27.92;49.27;91099.38;5074766;28;20392;-67
2022/06/28 14:24:27;;;;;;;;;;;;;;;27.84;48.23;91097.91;5074604;28;20385;-67
2022/06/28 14:26:54;;;;;;;;;;;;;;;27.89;48.49;91095.50;5074494;28;19969;-67
2022/06/28 14:29:19;;;;;;;;;;;;;;;27.91;48.45;91101.31;5074665;28;20452;-67
2022/06/28 14:31:44;;;;;;;;;;;;;;;27.69;48.55;91095.38;5074553;28;19958;-67
2022/06/28 14:34:13;;;;;;;;;;;;;;;27.71;48.63;91098.47;5074444;28;19952;-67
2022/06/28 14:36:39;;;;;;;;;;;;;;;27.70;49.06;91098.88;5074368;28;19912;-67
2022/06/28 14:39:04;;;;;;;;;;;;;;;27.76;49.79;91099.97;5073941;28;19919;-66
2022/06/28 14:41:29;;;;;;;;;;;;;;;27.90;47.99;91093.53;5074254;28;20317;-67
2022/06/28 14:43:56;;;;;;;;;;;;;;;27.83;48.10;91101.84;5074179;28;19912;-67
2022/06/28 14:46:21;;;;;;;;;;;;;;;27.90;47.98;91099.00;5074278;28;19917;-67
2022/06/28 14:48:46;;;;;;;;;;;;;;;27.88;46.79;91088.47;5074246;28;19923;-67
2022/06/28 14:51:12;;;;;;;;;;;;;;;27.88;46.89;91095.91;5074101;28;19923;-67
2022/06/28 14:53:37;;;;;;;;;;;;;;;27.62;47.32;91098.19;5074054;28;19965;-68
2022/06/28 14:56:03;;;;;;;;;;;;;;;28.01;47.94;91092.22;5055911;28;19942;-67
2022/06/28 14:58:30;;;;;;;;;;;;;;;27.50;48.82;91082.31;5074129;28;19918;-67
2022/06/28 15:00:55;;;;;;;;;;;;;;;27.58;48.93;91075.56;5056173;28;20328;-67
2022/06/28 15:03:20;;;;;;;;;;;;;;;27.54;50.37;91077.56;5073979;28;20002;-67
2022/06/28 15:05:46;;;;;;;;;;;;;;;27.49;50.45;91078.03;5073699;28;20003;-67
2022/06/28 15:08:11;;;;;;;;;;;;;;;27.61;50.36;91069.28;5073849;28;20459;-67
2022/06/28 15:10:37;;;;;;;;;;;;;;;27.61;50.42;91072.00;5073808;28;19916;-67
2022/06/28 15:13:03;;;;;;;;;;;;;;;27.83;49.88;91075.28;5073641;28;20447;-67
2022/06/28 15:15:28;;;;;;;;;;;;;;;27.84;49.45;91087.75;5073576;28;19912;-67
2022/06/28 15:17:53;;;;;;;;;;;;;;;27.94;50.09;91088.81;5073446;28;20378;-67
2022/06/28 15:20:18;;;;;;;;;;;;;;;27.88;50.15;91084.97;5073532;28;20404;-67
2022/06/28 15:30:56;;;;;;;;;;;;;;;26.79;56.62;91104.88;5073360;28;19927;-67
2022/06/28 15:33:22;;;;;;;;;;;;;;;26.56;58.05;91106.25;5073308;28;19916;-68
2022/06/28 15:35:49;;;;;;;;;;;;;;;26.18;58.56;91113.53;5073213;28;19936;-67
2022/06/28 15:38:14;;;;;;;;;;;;;;;25.80;60.66;91103.66;5073310;28;19916;-67
2022/06/28 15:40:40;;;;;;;;;;;;;;;25.61;62.70;91097.50;5073235;28;19938;-67
2022/06/28 15:43:06;;;;;;;;;;;;;;;25.61;63.66;91094.00;5073158;28;19995;-67
2022/06/28 15:45:31;;;;;;;;;;;;;;;25.66;63.97;91096.28;5072944;28;20028;-67
2022/06/28 15:47:56;;;;;;;;;;;;;;;25.44;65.11;91089.41;5072958;28;20310;-67
2022/06/28 15:50:22;;;;;;;;;;;;;;;25.33;66.48;91084.78;5072153;28;19916;-67
2022/06/28 15:52:47;;;;;;;;;;;;;;;25.14;68.13;91085.25;5073014;28;20286;-67
2022/06/28 15:55:13;;;;;;;;;;;;;;;24.98;69.63;91082.16;5072653;28;19920;-67
2022/06/28 15:57:40;;;;;;;;;;;;;;;24.94;71.21;91084.88;5072804;28;19920;-67
2022/06/28 16:00:06;;;;;;;;;;;;;;;24.93;70.32;91090.69;5073026;28;19912;-67
2022/06/28 16:02:31;;;;;;;;;;;;;;;25.10;70.77;91095.38;5070829;28;20007;-67
2022/06/28 16:04:57;;;;;;;;;;;;;;;25.24;70.04;91105.41;5092360;28;19922;-67
2022/06/28 16:07:22;;;;;;;;;;;;;;;25.17;70.43;91116.34;5090575;28;19919;-68
2022/06/28 16:09:48;;;;;;;;;;;;;;;25.12;73.11;91117.53;5052861;28;19912;-66
2022/06/28 16:13:13;;;;;;;;;;;;;;;25.08;75.68;91112.06;5076910;28;19916;-66
2022/06/28 16:15:08;;;;;;;;;;;;;;;24.91;76.31;91109.38;5065967;28;19921;-66
2022/06/28 16:17:33;;;;;;;;;;;;;;;24.91;77.43;91112.09;5072689;28;19916;-66
2022/06/28 16:19:58;;;;;;;;;;;;;;;24.90;74.96;91111.31;5072410;28;19912;-67
2022/06/28 16:22:24;;;;;;;;;;;;;;;24.99;76.25;91113.63;5072453;28;19991;-66
2022/06/28 16:24:49;;;;;;;;;;;;;;;25.08;72.92;91111.28;5072227;28;19912;-67
2022/06/28 16:27:15;;;;;;;;;;;;;;;24.76;72.01;91114.84;5060016;28;19917;-66
2022/06/28 16:29:40;;;;;;;;;;;;;;;24.60;73.75;91108.25;5091867;28;19919;-66
2022/06/28 16:32:06;;;;;;;;;;;;;;;24.40;75.52;91116.03;5091812;28;19912;-66
2022/06/28 16:34:31;;;;;;;;;;;;;;;24.11;77.41;91113.28;5092025;28;19916;-69
2022/06/28 16:36:56;;;;;;;;;;;;;;;24.05;79.54;91112.09;5092195;28;19915;-67
2022/06/28 16:39:22;;;;;;;;;;;;;;;23.90;81.71;91105.09;5092119;28;19941;-68
2022/06/28 16:41:47;;;;;;;;;;;;;;;23.77;81.42;91106.63;5092085;28;19916;-69
2022/06/28 16:44:12;;;;;;;;;;;;;;;23.56;82.07;91108.09;5074022;28;20006;-68
2022/06/28 16:46:37;;;;;;;;;;;;;;;23.43;82.80;91098.75;5091431;28;19911;-67
2022/06/28 16:49:03;;;;;;;;;;;;;;;23.35;83.42;91091.72;5091810;28;20316;-67
2022/06/28 16:51:29;;;;;;;;;;;;;;;23.16;83.46;91083.91;5091990;28;19920;-67
2022/06/28 16:53:55;;;;;;;;;;;;;;;23.10;84.24;91074.59;5091889;28;19912;-68
2022/06/28 16:56:20;;;;;;;;;;;;;;;22.96;84.52;91084.22;5091475;28;19915;-69
2022/06/28 16:58:46;;;;;;;;;;;;;;;22.92;84.91;91086.13;5091777;28;20451;-69
2022/06/28 17:01:11;;;;;;;;;;;;;;;22.89;85.21;91086.91;5091146;28;20386;-69
2022/06/28 17:03:37;;;;;;;;;;;;;;;22.87;84.63;91094.63;5091511;28;19927;-68
2022/06/28 17:06:02;;;;;;;;;;;;;;;22.81;85.34;91101.53;5093307;28;19920;-69
2022/06/28 17:08:28;;;;;;;;;;;;;;;22.86;84.20;91103.91;5091496;28;20424;-67
2022/06/28 17:10:53;;;;;;;;;;;;;;;22.87;84.98;91115.53;5091629;28;19916;-68
2022/06/28 17:13:21;;;;;;;;;;;;;;;22.83;86.82;91128.31;5091342;28;19924;-68
2022/06/28 17:15:47;;;;;;;;;;;;;;;22.87;87.65;91129.88;5090987;28;19923;-67
2022/06/28 17:18:12;;;;;;;;;;;;;;;22.93;89.48;91125.66;5091488;28;19920;-68
2022/06/28 17:20:37;;;;;;;;;;;;;;;22.89;91.87;91135.75;5091521;28;20069;-68
2022/06/28 17:23:03;;;;;;;;;;;;;;;22.85;94.10;91140.34;5091474;28;19916;-68
2022/06/28 17:25:28;;;;;;;;;;;;;;;22.88;100.00;91165.94;5091462;28;20278;-68
2022/06/28 17:27:53;;;;;;;;;;;;;;;22.32;100.00;91165.13;5091562;28;19916;-66
2022/06/28 17:30:19;;;;;;;;;;;;;;;21.87;100.00;91189.81;5091495;28;19920;-70
2022/06/28 17:32:47;;;;;;;;;;;;;;;20.85;100.00;91201.69;5091029;28;19967;-67
2022/06/28 17:35:13;;;;;;;;;;;;;;;20.72;100.00;91216.53;5091284;28;19922;-67
2022/06/28 17:37:38;;;;;;;;;;;;;;;20.25;100.00;91217.69;5091280;28;20003;-68
2022/06/28 17:40:04;;;;;;;;;;;;;;;19.93;100.00;91225.22;5091421;28;19916;-66
2022/06/28 17:42:29;;;;;;;;;;;;;;;19.66;100.00;91227.81;5091296;28;20400;-67
2022/06/28 17:44:54;;;;;;;;;;;;;;;19.44;100.00;91237.38;5091264;28;19916;-67
2022/06/28 17:47:20;;;;;;;;;;;;;;;19.31;100.00;91246.75;5090798;28;19915;-68
2022/06/28 17:49:47;;;;;;;;;;;;;;;19.01;100.00;91251.88;5091159;28;19955;-67
2022/06/28 17:52:12;;;;;;;;;;;;;;;18.87;100.00;91254.25;5091530;28;20412;-68
2022/06/28 17:54:38;;;;;;;;;;;;;;;18.89;100.00;91262.00;5091104;28;20030;-65
2022/06/28 17:57:10;;;;;;;;;;;;;;;18.89;100.00;91254.69;5090923;28;20014;-67
2022/06/28 17:59:36;;;;;;;;;;;;;;;18.87;100.00;91258.88;5091271;28;19922;-66
2022/06/28 18:02:01;;;;;;;;;;;;;;;18.76;100.00;91256.69;5091041;28;19916;-67
2022/06/28 18:04:26;;;;;;;;;;;;;;;18.45;100.00;91265.56;5091037;28;19920;-66
2022/06/28 18:06:52;;;;;;;;;;;;;;;18.23;100.00;91285.03;5091043;28;20015;-65
2022/06/28 18:09:17;;;;;;;;;;;;;;;18.07;100.00;91287.69;5090945;28;20408;-67
2022/06/28 18:11:43;;;;;;;;;;;;;;;18.05;100.00;91297.25;5090939;28;19974;-68
2022/06/28 18:14:08;;;;;;;;;;;;;;;18.14;100.00;91314.00;5092911;28;19938;-66
2022/06/28 18:16:33;;;;;;;;;;;;;;;17.92;100.00;91326.13;5094297;28;19938;-67
2022/06/28 18:18:59;;;;;;;;;;;;;;;17.74;100.00;91328.34;5094730;28;19916;-70
2022/06/28 18:21:25;;;;;;;;;;;;;;;17.79;100.00;91328.09;5076386;28;20436;-67
2022/06/28 18:23:50;;;;;;;;;;;;;;;17.78;100.00;91331.91;5094530;28;19998;-67
2022/06/28 18:26:16;;;;;;;;;;;;;;;17.82;100.00;91332.78;5094581;28;19920;-67
2022/06/28 18:28:41;;;;;;;;;;;;;;;17.84;100.00;91337.84;5094600;28;19927;-67
2022/06/28 18:31:06;;;;;;;;;;;;;;;17.77;100.00;91343.00;5094127;28;19959;-68
2022/06/28 18:33:32;;;;;;;;;;;;;;;17.63;100.00;91344.13;5094400;28;19930;-66
2022/06/28 18:35:57;;;;;;;;;;;;;;;17.65;100.00;91336.50;5094268;28;19916;-65
2022/06/28 18:38:23;;;;;;;;;;;;;;;17.60;100.00;91334.06;5094592;28;19915;-67
2022/06/28 18:40:48;;;;;;;;;;;;;;;17.59;100.00;91331.72;5094544;28;19916;-66
2022/06/28 18:43:14;;;;;;;;;;;;;;;17.60;100.00;91341.34;5083564;28;19916;-65
2022/06/28 18:45:40;;;;;;;;;;;;;;;17.59;100.00;91335.19;5073518;28;19939;-68
2022/06/28 18:48:07;;;;;;;;;;;;;;;17.59;100.00;91323.66;5072290;28;20309;-66
2022/06/28 18:50:34;;;;;;;;;;;;;;;17.64;100.00;91318.78;5074088;28;19916;-67
2022/06/28 18:52:59;;;;;;;;;;;;;;;17.67;100.00;91317.31;5073987;28;19916;-68
2022/06/28 18:55:25;;;;;;;;;;;;;;;17.69;100.00;91317.03;5073701;28;19938;-67
2022/06/28 18:57:51;;;;;;;;;;;;;;;17.69;100.00;91314.34;5073938;28;19942;-67
2022/06/28 19:00:17;;;;;;;;;;;;;;;17.72;100.00;91308.28;5073737;28;19920;-67
2022/06/28 19:02:43;;;;;;;;;;;;;;;17.78;100.00;91298.81;5073912;28;19916;-66
2022/06/28 19:05:09;;;;;;;;;;;;;;;17.80;100.00;91293.88;5073636;28;20007;-66
2022/06/28 19:07:34;;;;;;;;;;;;;;;17.83;100.00;91299.38;5073914;28;20291;-66
2022/06/28 19:09:59;;;;;;;;;;;;;;;17.77;100.00;91305.34;5055716;28;19970;-67
2022/06/28 19:12:25;;;;;;;;;;;;;;;17.81;100.00;91301.59;5073584;28;19971;-68
2022/06/28 19:14:50;;;;;;;;;;;;;;;17.86;100.00;91309.44;5073501;28;20011;-66
2022/06/28 19:17:16;;;;;;;;;;;;;;;17.86;100.00;91311.38;5073498;28;20390;-67
2022/06/28 19:19:41;;;;;;;;;;;;;;;17.83;100.00;91304.75;5073433;28;20432;-67
2022/06/28 19:22:07;;;;;;;;;;;;;;;17.81;100.00;91307.00;5073454;28;20386;-66
2022/06/28 19:24:32;;;;;;;;;;;;;;;17.82;100.00;91302.38;5072517;28;19928;-67
2022/06/28 19:26:58;;;;;;;;;;;;;;;17.79;100.00;91300.38;5072966;28;19959;-66
2022/06/28 19:29:24;;;;;;;;;;;;;;;17.80;100.00;91304.63;5073252;28;19923;-67
2022/06/28 19:31:49;;;;;;;;;;;;;;;17.82;100.00;91305.06;5073220;28;19942;-67
2022/06/28 19:34:15;;;;;;;;;;;;;;;17.78;100.00;91315.75;5073224;28;19924;-67
2022/06/28 19:36:40;;;;;;;;;;;;;;;17.66;100.00;91319.22;5073028;28;20409;-66
2022/06/28 19:39:06;;;;;;;;;;;;;;;17.46;100.00;91314.81;5073026;28;19917;-67
2022/06/28 19:41:32;;;;;;;;;;;;;;;17.42;100.00;91316.63;5072858;28;19931;-67
2022/06/28 19:43:57;;;;;;;;;;;;;;;17.43;100.00;91312.03;5072902;28;19920;-66
2022/06/28 19:46:22;;;;;;;;;;;;;;;17.49;100.00;91307.97;5072772;28;19916;-67
2022/06/28 19:48:48;;;;;;;;;;;;;;;17.52;100.00;91301.94;5072876;28;19917;-68
2022/06/28 19:51:13;;;;;;;;;;;;;;;17.54;100.00;91294.31;5072726;28;19960;-68
2022/06/28 19:53:39;;;;;;;;;;;;;;;17.54;100.00;91291.63;5072719;28;19959;-67
2022/06/28 19:56:04;;;;;;;;;;;;;;;17.43;100.00;91303.97;5072586;28;19917;-67
2022/06/28 19:58:30;;;;;;;;;;;;;;;17.43;100.00;91293.22;5072816;28;20312;-67
2022/06/28 20:00:55;;;;;;;;;;;;;;;17.38;100.00;91310.38;5072782;28;19963;-67
2022/06/28 20:03:22;;;;;;;;;;;;;;;17.41;100.00;91308.91;5072543;28;19966;-67
2022/06/28 20:05:47;;;;;;;;;;;;;;;17.35;100.00;91300.28;5072773;28;19943;-67
2022/06/28 20:08:13;;;;;;;;;;;;;;;17.33;100.00;91302.53;5054606;28;20378;-66
2022/06/28 20:10:39;;;;;;;;;;;;;;;17.30;100.00;91297.84;5072778;28;20008;-67
2022/06/28 20:13:05;;;;;;;;;;;;;;;17.32;100.00;91295.59;5072596;28;19923;-68
2022/06/28 20:15:31;;;;;;;;;;;;;;;17.32;100.00;91300.97;5072368;28;20414;-67
2022/06/28 20:17:56;;;;;;;;;;;;;;;17.32;100.00;91298.28;5072256;28;20419;-67
2022/06/28 20:20:21;;;;;;;;;;;;;;;17.33;100.00;91297.94;5072341;28;19968;-66
2022/06/28 20:22:47;;;;;;;;;;;;;;;17.30;100.00;91298.63;5072267;28;20246;-68
2022/06/28 20:25:13;;;;;;;;;;;;;;;17.17;100.00;91299.75;5072086;28;19916;-68
2022/06/28 20:27:39;;;;;;;;;;;;;;;16.93;100.00;91300.59;5072320;28;19947;-68
2022/06/28 20:30:05;;;;;;;;;;;;;;;16.72;100.00;91297.22;5072346;28;19931;-68
2022/06/28 20:32:30;;;;;;;;;;;;;;;16.58;100.00;91299.47;5072093;28;19916;-68
2022/06/28 20:34:55;;;;;;;;;;;;;;;16.44;100.00;91295.22;5071929;28;19916;-68
2022/06/28 20:37:21;;;;;;;;;;;;;;;16.39;100.00;91292.72;5071428;28;20329;-68
2022/06/28 20:39:46;;;;;;;;;;;;;;;16.34;100.00;91284.91;5071715;28;19924;-67
2022/06/28 20:42:22;;;;;;;;;;;;;;;16.43;100.00;91293.63;5071868;28;19928;-68
2022/06/28 20:44:48;;;;;;;;;;;;;;;16.40;100.00;91286.22;5071814;28;19927;-68
2022/06/28 20:47:14;;;;;;;;;;;;;;;16.42;100.00;91296.66;5071848;28;19922;-68
2022/06/28 20:49:40;;;;;;;;;;;;;;;16.43;100.00;91299.00;5071704;28;20392;-67
2022/06/28 20:52:07;;;;;;;;;;;;;;;16.47;100.00;91297.22;5053826;28;20007;-67
2022/06/28 20:54:33;;;;;;;;;;;;;;;16.56;100.00;91309.75;5071655;28;19995;-68
2022/06/28 20:56:58;;;;;;;;;;;;;;;16.54;100.00;91315.44;5071560;28;19920;-68
2022/06/28 20:59:23;;;;;;;;;;;;;;;16.44;100.00;91319.38;5053665;28;19916;-68
2022/06/28 21:01:49;;;;;;;;;;;;;;;16.31;100.00;91315.09;5071630;28;19969;-68
2022/06/28 21:04:14;;;;;;;;;;;;;;;16.21;100.00;91322.78;5071498;28;19917;-68
2022/06/28 21:06:39;;;;;;;;;;;;;;;16.09;100.00;91318.97;5071561;28;19916;-68
2022/06/28 21:09:05;;;;;;;;;;;;;;;16.01;100.00;91327.91;5071549;28;19916;-67
2022/06/28 21:11:30;;;;;;;;;;;;;;;15.90;100.00;91331.31;5071531;28;19916;-67
2022/06/28 21:13:56;;;;;;;;;;;;;;;15.93;100.00;91334.13;5071328;28;19957;-67
2022/06/28 21:16:23;;;;;;;;;;;;;;;15.94;100.00;91326.84;5071327;28;20013;-67
2022/06/28 21:18:48;;;;;;;;;;;;;;;15.98;100.00;91325.09;5071517;28;19931;-67
2022/06/28 21:21:13;;;;;;;;;;;;;;;15.97;100.00;91321.63;5071421;28;19916;-67
2022/06/28 21:23:39;;;;;;;;;;;;;;;15.94;100.00;91313.44;5071316;28;19916;-67
2022/06/28 21:26:04;;;;;;;;;;;;;;;15.97;100.00;91312.78;5071385;28;20008;-67
2022/06/28 21:28:29;;;;;;;;;;;;;;;15.87;100.00;91320.13;5071357;28;19917;-67
2022/06/28 21:30:55;;;;;;;;;;;;;;;15.83;100.00;91319.25;5071195;28;20340;-67
2022/06/28 21:33:20;;;;;;;;;;;;;;;15.76;100.00;91327.03;5071216;28;20408;-67
2022/06/28 21:35:45;;;;;;;;;;;;;;;15.75;100.00;91317.41;5071295;28;20007;-67
2022/06/28 21:38:11;;;;;;;;;;;;;;;15.71;100.00;91316.50;5071384;28;19966;-67
2022/06/28 21:40:37;;;;;;;;;;;;;;;15.74;100.00;91318.53;5071250;28;19920;-67
2022/06/28 21:43:05;;;;;;;;;;;;;;;15.72;100.00;91319.97;5071155;28;19924;-67
2022/06/28 21:45:32;;;;;;;;;;;;;;;15.71;100.00;91319.19;5071470;28;19923;-67
2022/06/28 21:47:57;;;;;;;;;;;;;;;15.65;100.00;91319.72;5071294;28;20973;-67
2022/06/28 21:50:23;;;;;;;;;;;;;;;15.59;100.00;91324.50;5075217;28;19922;-67
2022/06/28 21:52:48;;;;;;;;;;;;;;;15.58;100.00;91323.69;5075043;28;20344;-68
2022/06/28 21:55:14;;;;;;;;;;;;;;;15.51;100.00;91322.66;5074913;28;19917;-67
2022/06/28 21:57:43;;;;;;;;;;;;;;;15.54;100.00;91322.00;5074961;28;19921;-67
2022/06/28 22:00:09;;;;;;;;;;;;;;;15.49;100.00;91323.00;5074910;28;19947;-67
2022/06/28 22:02:35;;;;;;;;;;;;;;;15.54;100.00;91328.13;5074937;28;20297;-67
2022/06/28 22:05:00;;;;;;;;;;;;;;;15.54;100.00;91327.34;5074834;28;20390;-68
2022/06/28 22:07:25;;;;;;;;;;;;;;;15.42;100.00;91330.75;5074862;28;19920;-67
2022/06/28 22:09:50;;;;;;;;;;;;;;;15.46;100.00;91328.19;5074757;28;19916;-68
2022/06/28 22:12:16;;;;;;;;;;;;;;;15.44;100.00;91333.09;5074760;28;20014;-67
2022/06/28 22:14:41;;;;;;;;;;;;;;;15.43;100.00;91331.53;5074673;28;20011;-68
2022/06/28 22:17:06;;;;;;;;;;;;;;;15.45;100.00;91329.31;5074576;28;20023;-67
2022/06/28 22:19:32;;;;;;;;;;;;;;;15.33;100.00;91338.09;5074677;28;19931;-67
2022/06/28 22:21:57;;;;;;;;;;;;;;;15.21;100.00;91336.13;5074552;28;19927;-67
2022/06/28 22:24:22;;;;;;;;;;;;;;;15.21;100.00;91330.75;5074460;28;19916;-68
2022/06/28 22:26:48;;;;;;;;;;;;;;;15.18;100.00;91339.47;5074517;28;20007;-68
2022/06/28 22:29:14;;;;;;;;;;;;;;;15.27;100.00;91345.53;5074455;28;19916;-68
2022/06/28 22:31:39;;;;;;;;;;;;;;;15.32;100.00;91339.22;5074232;28;19924;-67
2022/06/28 22:34:04;;;;;;;;;;;;;;;15.35;100.00;91340.44;5074265;28;19924;-68
2022/06/28 22:36:30;;;;;;;;;;;;;;;15.35;100.00;91335.09;5074224;28;19924;-68
2022/06/28 22:38:55;;;;;;;;;;;;;;;15.42;100.00;91325.41;5074270;28;19916;-68
2022/06/28 22:41:20;;;;;;;;;;;;;;;15.42;100.00;91329.97;5074229;28;19971;-68
2022/06/28 22:43:46;;;;;;;;;;;;;;;15.42;100.00;91329.97;5074041;28;20019;-67
2022/06/28 22:46:11;;;;;;;;;;;;;;;15.33;100.00;91327.38;5074039;28;19920;-68
2022/06/28 22:48:36;;;;;;;;;;;;;;;15.37;100.00;91324.81;5074327;28;19927;-68
2022/06/28 22:51:02;;;;;;;;;;;;;;;15.31;100.00;91323.47;5074105;28;19924;-68
2022/06/28 22:53:28;;;;;;;;;;;;;;;15.29;100.00;91319.19;5073970;28;19920;-68
2022/06/28 22:55:53;;;;;;;;;;;;;;;15.31;100.00;91318.88;5073768;28;19916;-68
2022/06/28 22:58:19;;;;;;;;;;;;;;;15.24;100.00;91314.03;5073882;28;19916;-68
2022/06/28 23:00:44;;;;;;;;;;;;;;;15.15;100.00;91313.31;5073579;28;19965;-68
2022/06/28 23:03:09;;;;;;;;;;;;;;;15.11;100.00;91323.09;5073804;28;19916;-68
2022/06/28 23:05:35;;;;;;;;;;;;;;;15.13;100.00;91325.47;5073805;28;20309;-68
2022/06/28 23:08:00;;;;;;;;;;;;;;;15.19;100.00;91333.00;5073751;28;19917;-67
2022/06/28 23:13:09;;;;;;;;;;;;;;;15.14;100.00;91318.97;5073926;28;19923;-68
2022/06/28 23:15:35;;;;;;;;;;;;;;;15.09;100.00;91325.31;5073619;28;19916;-67
2022/06/28 23:18:00;;;;;;;;;;;;;;;15.08;100.00;91323.75;5073484;28;20314;-67
2022/06/28 23:20:26;;;;;;;;;;;;;;;15.06;100.00;91323.31;5073521;28;20290;-68
2022/06/28 23:22:52;;;;;;;;;;;;;;;15.03;100.00;91326.63;5073399;28;19916;-68
2022/06/28 23:25:17;;;;;;;;;;;;;;;15.01;100.00;91320.81;5073297;28;19946;-68
2022/06/28 23:27:42;;;;;;;;;;;;;;;15.01;100.00;91328.88;5073373;28;19917;-68
2022/06/28 23:30:08;;;;;;;;;;;;;;;15.05;100.00;91315.59;5073343;28;19959;-68
2022/06/28 23:32:33;;;;;;;;;;;;;;;15.06;100.00;91312.59;5073200;28;20362;-68
2022/06/28 23:34:59;;;;;;;;;;;;;;;15.08;100.00;91320.28;5073254;28;19916;-68
2022/06/28 23:37:24;;;;;;;;;;;;;;;15.09;100.00;91311.16;5073164;28;19923;-69
2022/06/28 23:39:49;;;;;;;;;;;;;;;15.02;100.00;91317.03;5073145;28;20350;-68
2022/06/28 23:42:15;;;;;;;;;;;;;;;14.92;100.00;91315.50;5073125;28;19973;-68
2022/06/28 23:44:40;;;;;;;;;;;;;;;14.87;100.00;91305.00;5072993;28;19917;-68
2022/06/28 23:47:05;;;;;;;;;;;;;;;14.87;100.00;91304.22;5073055;28;20011;-68
2022/06/28 23:49:31;;;;;;;;;;;;;;;14.73;100.00;91292.94;5073038;28;19955;-69
2022/06/28 23:51:56;;;;;;;;;;;;;;;14.68;100.00;91296.59;5072897;28;20004;-68
2022/06/28 23:57:05;;;;;;;;;;;;;;;14.54;100.00;91307.53;5072653;28;19973;-67
2022/06/28 23:59:30;;;;;;;;;;;;;;;14.46;100.00;91310.25;5072820;28;20019;-68
